Time;durP1;ratioP1;P1;durP2;ratioP2;P2;SDS_P1;SDS_P2;PMS_P1;PMS_P2;Temp;Humidity;BMP_temperature;BMP_pressure;BME280_temperature;BME280_humidity;BME280_pressure;Samples;Min_cycle;Max_cycle;Signal;HPM_P1;HPM_P2
2022/04/01 00:02:05;;;;;;;;;;;;;;;-144.19;100.00;77408.00;5006499;28;19925;-81
2022/04/01 00:04:32;;;;;;;;;;;;;;;-144.19;100.00;77415.88;5010600;28;19929;-82
2022/04/01 00:06:58;;;;;;;;;;;;;;;-144.19;100.00;77396.19;5010535;28;20380;-81
2022/04/01 00:09:24;;;;;;;;;;;;;;;-144.19;100.00;77409.97;5010474;28;19952;-81
2022/04/01 00:11:51;;;;;;;;;;;;;;;-144.19;100.00;77417.84;4995557;28;19925;-82
2022/04/01 00:14:17;;;;;;;;;;;;;;;-144.19;100.00;77413.91;4995264;28;19926;-81
2022/04/01 00:16:44;;;;;;;;;;;;;;;-144.19;100.00;77411.94;5010701;28;19926;-81
2022/04/01 00:19:12;;;;;;;;;;;;;;;-144.19;100.00;77404.06;4995477;28;20024;-82
2022/04/01 00:21:39;;;;;;;;;;;;;;;-144.19;100.00;77413.91;4994288;28;20296;-81
2022/04/01 00:24:06;;;;;;;;;;;;;;;-144.19;100.00;77415.88;4995027;28;19932;-81
2022/04/01 00:26:32;;;;;;;;;;;;;;;-144.19;100.00;77433.59;4995527;28;20273;-82
2022/04/01 00:28:58;;;;;;;;;;;;;;;-144.19;100.00;77425.72;4995745;28;20347;-81
2022/04/01 00:31:25;;;;;;;;;;;;;;;-144.19;100.00;77429.66;5009769;28;19938;-82
2022/04/01 00:34:15;;;;;;;;;;;;;;;-144.19;100.00;77437.53;4993372;28;19937;-82
2022/04/01 00:36:37;;;;;;;;;;;;;;;-144.19;100.00;77433.59;4981795;28;20456;-83
2022/04/01 00:39:03;;;;;;;;;;;;;;;-144.19;100.00;77435.56;4980156;28;19933;-81
2022/04/01 00:41:30;;;;;;;;;;;;;;;-144.19;100.00;77445.41;4990056;28;20401;-82
2022/04/01 00:44:15;;;;;;;;;;;;;;;-144.19;100.00;77461.16;5008806;28;19930;-81
2022/04/01 00:46:45;;;;;;;;;;;;;;;-144.19;100.00;77465.09;4995579;28;19929;-81
2022/04/01 00:49:11;;;;;;;;;;;;;;;-144.19;100.00;77451.31;5009514;28;19982;-84
2022/04/01 00:51:40;;;;;;;;;;;;;;;-144.19;100.00;77461.16;5009010;28;20380;-82
2022/04/01 00:54:06;;;;;;;;;;;;;;;-144.19;100.00;77457.22;5009033;28;19926;-83
2022/04/01 00:56:33;;;;;;;;;;;;;;;-144.19;100.00;77476.91;4995347;28;19973;-82
2022/04/01 00:59:00;;;;;;;;;;;;;;;-144.19;100.00;77465.09;5007892;28;19926;-81
2022/04/01 01:01:26;;;;;;;;;;;;;;;-144.19;100.00;77472.97;4989131;28;19949;-81
2022/04/01 01:03:53;;;;;;;;;;;;;;;-144.19;100.00;77474.94;5007897;28;20409;-84
2022/04/01 01:06:20;;;;;;;;;;;;;;;-144.19;100.00;77480.84;4994840;28;19932;-84
2022/04/01 01:08:47;;;;;;;;;;;;;;;-144.19;100.00;77469.03;4994706;28;19925;-83
2022/04/01 01:11:14;;;;;;;;;;;;;;;-144.19;100.00;77478.88;4993293;28;19926;-82
2022/04/01 01:13:40;;;;;;;;;;;;;;;-144.19;100.00;77476.91;4993800;28;19927;-82
2022/04/01 01:16:10;;;;;;;;;;;;;;;-144.19;100.00;77484.78;4993824;28;19932;-82
2022/04/01 01:18:36;;;;;;;;;;;;;;;-144.19;100.00;77488.72;5009079;28;20008;-81
2022/04/01 01:21:02;;;;;;;;;;;;;;;-144.19;100.00;77498.56;5008254;28;19937;-83
2022/04/01 01:23:29;;;;;;;;;;;;;;;-144.19;100.00;77492.66;4993465;28;19926;-81
2022/04/01 01:25:55;;;;;;;;;;;;;;;-144.19;100.00;77484.78;5008975;28;19941;-82
2022/04/01 01:28:22;;;;;;;;;;;;;;;-144.19;100.00;77494.63;4994345;28;19929;-83
2022/04/01 01:30:48;;;;;;;;;;;;;;;-144.19;100.00;77476.91;5008272;28;19937;-83
2022/04/01 01:33:15;;;;;;;;;;;;;;;-144.19;100.00;77478.88;4993251;28;20047;-82
2022/04/01 01:35:42;;;;;;;;;;;;;;;-144.19;100.00;77494.63;4976481;28;19930;-82
2022/04/01 01:38:08;;;;;;;;;;;;;;;-144.19;100.00;77496.59;4989028;28;19933;-83
2022/04/01 01:40:35;;;;;;;;;;;;;;;-144.19;100.00;77500.53;4979717;28;19930;-81
2022/04/01 01:43:01;;;;;;;;;;;;;;;-144.19;100.00;77508.41;4993667;28;19934;-81
2022/04/01 01:45:31;;;;;;;;;;;;;;;-144.19;100.00;77506.44;5008817;28;19926;-82
2022/04/01 01:47:57;;;;;;;;;;;;;;;-144.19;100.00;77508.41;4993742;28;20463;-83
2022/04/01 01:55:53;;;;;;;;;;;;;;;-144.19;100.00;77522.19;4993990;28;19929;-81
2022/04/01 01:58:19;;;;;;;;;;;;;;;-144.19;100.00;77520.22;4993813;28;20147;-83
2022/04/01 02:00:45;;;;;;;;;;;;;;;-144.19;100.00;77520.22;4991411;28;19933;-81
2022/04/01 02:03:12;;;;;;;;;;;;;;;-144.19;100.00;77518.25;4994034;28;19951;-82
2022/04/01 02:05:38;;;;;;;;;;;;;;;-144.19;100.00;77516.28;4993031;28;20013;-83
2022/04/01 02:08:05;;;;;;;;;;;;;;;-144.19;100.00;77518.25;4991612;28;20392;-84
2022/04/01 02:10:32;;;;;;;;;;;;;;;-144.19;100.00;77524.16;5007373;28;19941;-82
2022/04/01 02:12:59;;;;;;;;;;;;;;;-144.19;100.00;77528.09;5008329;28;20017;-84
2022/04/01 02:15:25;;;;;;;;;;;;;;;-144.19;100.00;77524.16;4993632;28;19926;-82
2022/04/01 02:17:52;;;;;;;;;;;;;;;-144.19;100.00;77535.97;5008423;28;20308;-82
2022/04/01 02:20:18;;;;;;;;;;;;;;;-144.19;100.00;77537.94;4991068;28;19937;-82
2022/04/01 02:22:44;;;;;;;;;;;;;;;-144.19;100.00;77547.78;4993462;28;19936;-84
2022/04/01 02:25:11;;;;;;;;;;;;;;;-144.19;100.00;77557.63;4993812;28;20383;-84
2022/04/01 02:27:37;;;;;;;;;;;;;;;-144.19;100.00;77551.72;5008734;28;19925;-84
2022/04/01 02:30:10;;;;;;;;;;;;;;;-144.19;100.00;77543.84;4993758;28;19926;-84
2022/04/01 02:32:38;;;;;;;;;;;;;;;-144.19;100.00;77559.63;4991905;28;19926;-81
2022/04/01 02:35:04;;;;;;;;;;;;;;;-144.19;100.00;77571.44;4980217;28;19926;-82
2022/04/01 02:37:31;;;;;;;;;;;;;;;-144.19;100.00;77559.63;4999465;28;19933;-82
2022/04/01 02:39:58;;;;;;;;;;;;;;;-144.19;100.00;77563.56;4992471;28;20327;-82
2022/04/01 02:42:24;;;;;;;;;;;;;;;-144.19;100.00;77571.44;5006987;28;20032;-83
2022/04/01 02:44:50;;;;;;;;;;;;;;;-144.19;100.00;77571.44;4992798;28;19926;-83
2022/04/01 02:47:17;;;;;;;;;;;;;;;-144.19;100.00;77573.41;4990883;28;19932;-82
2022/04/01 02:49:43;;;;;;;;;;;;;;;-144.19;100.00;77571.44;4992303;28;19937;-80
2022/04/01 02:52:09;;;;;;;;;;;;;;;-144.19;100.00;77573.41;4991455;28;20384;-81
2022/04/01 02:54:36;;;;;;;;;;;;;;;-144.19;100.00;77575.38;5007370;28;19925;-85
2022/04/01 02:57:03;;;;;;;;;;;;;;;-144.19;100.00;77569.47;5007124;28;20040;-82
2022/04/01 02:59:29;;;;;;;;;;;;;;;-144.19;100.00;77573.41;5008225;28;20518;-84
2022/04/01 03:01:55;;;;;;;;;;;;;;;-144.19;100.00;77575.38;5004134;28;19926;-83
2022/04/01 03:04:22;;;;;;;;;;;;;;;-144.19;100.00;77569.47;4991830;28;19957;-81
2022/04/01 03:06:48;;;;;;;;;;;;;;;-144.19;100.00;77583.25;4992868;28;19926;-83
2022/04/01 03:09:15;;;;;;;;;;;;;;;-144.19;100.00;77587.19;5007320;28;19925;-82
2022/04/01 03:11:42;;;;;;;;;;;;;;;-144.19;100.00;77585.22;4991211;28;19926;-83
2022/04/01 03:14:09;;;;;;;;;;;;;;;-144.19;100.00;77587.19;4991480;28;19937;-83
2022/04/01 03:16:37;;;;;;;;;;;;;;;-144.19;100.00;77575.38;5006946;28;19926;-81
2022/04/01 03:19:08;;;;;;;;;;;;;;;-144.19;100.00;77585.22;5006447;28;20675;-83
2022/04/01 03:21:35;;;;;;;;;;;;;;;-144.19;100.00;77587.19;5006528;28;19926;-82
2022/04/01 03:24:02;;;;;;;;;;;;;;;-144.19;100.00;77579.31;5010330;28;19936;-83
2022/04/01 03:26:29;;;;;;;;;;;;;;;-144.19;100.00;77591.13;4995512;28;20392;-82
2022/04/01 03:28:55;;;;;;;;;;;;;;;-144.19;100.00;77581.28;4995865;28;20001;-81
2022/04/01 03:31:21;;;;;;;;;;;;;;;-144.19;100.00;77595.06;5008804;28;20029;-81
2022/04/01 03:33:48;;;;;;;;;;;;;;;-144.19;100.00;77597.03;5006786;28;20024;-81
2022/04/01 03:36:14;;;;;;;;;;;;;;;-144.19;100.00;77595.06;4976849;28;20344;-81
2022/04/01 03:38:41;;;;;;;;;;;;;;;-144.19;100.00;77593.09;4975709;28;20021;-81
2022/04/01 03:41:08;;;;;;;;;;;;;;;-144.19;100.00;77599.00;4974334;28;19936;-82
2022/04/01 03:43:35;;;;;;;;;;;;;;;-144.19;100.00;77599.00;4988514;28;19933;-82
2022/04/01 03:46:09;;;;;;;;;;;;;;;-144.19;100.00;77587.19;4994124;28;19925;-81
2022/04/01 03:48:48;;;;;;;;;;;;;;;-144.19;100.00;77597.03;4992813;28;19930;-82
2022/04/01 03:51:18;;;;;;;;;;;;;;;-144.19;100.00;77606.88;5009162;28;19952;-82
2022/04/01 03:53:57;;;;;;;;;;;;;;;-144.19;100.00;77600.97;4992187;28;19926;-82
2022/04/01 03:56:29;;;;;;;;;;;;;;;-144.19;100.00;77614.75;4994555;28;19930;-80
2022/04/01 03:58:59;;;;;;;;;;;;;;;-144.19;100.00;77595.06;4980343;28;19932;-82
2022/04/01 04:01:26;;;;;;;;;;;;;;;-144.19;100.00;77599.00;4988425;28;20256;-81
2022/04/01 04:03:53;;;;;;;;;;;;;;;-144.19;100.00;77602.94;5004025;28;19940;-83
2022/04/01 04:06:19;;;;;;;;;;;;;;;-144.19;100.00;77604.91;4995512;28;19925;-81
2022/04/01 04:08:46;;;;;;;;;;;;;;;-144.19;100.00;77606.88;4990212;28;19926;-81
2022/04/01 04:11:14;;;;;;;;;;;;;;;-144.19;100.00;77612.78;4983494;28;19926;-82
2022/04/01 04:13:44;;;;;;;;;;;;;;;-144.19;100.00;77614.75;4989531;28;19926;-83
2022/04/01 04:16:18;;;;;;;;;;;;;;;-144.19;100.00;77612.78;4974269;28;19939;-83
2022/04/01 04:18:51;;;;;;;;;;;;;;;-144.19;100.00;77610.81;4997735;28;19976;-82
2022/04/01 04:21:17;;;;;;;;;;;;;;;-144.19;100.00;77618.69;4993547;28;19925;-82
2022/04/01 04:23:47;;;;;;;;;;;;;;;-144.19;100.00;77614.75;5008375;28;19926;-83
2022/04/01 04:26:23;;;;;;;;;;;;;;;-144.19;100.00;77618.69;4995273;28;19961;-82
2022/04/01 04:28:54;;;;;;;;;;;;;;;-144.19;100.00;77622.63;4995463;28;19926;-82
2022/04/01 04:31:29;;;;;;;;;;;;;;;-144.19;100.00;77622.63;4995948;28;19926;-83
2022/04/01 04:33:56;;;;;;;;;;;;;;;-144.19;100.00;77622.63;5004347;28;20032;-82
2022/04/01 04:36:36;;;;;;;;;;;;;;;-144.19;100.00;77630.50;4990007;28;19926;-82
2022/04/01 04:39:04;;;;;;;;;;;;;;;-144.19;100.00;77622.63;4984637;28;19930;-82
2022/04/01 04:41:32;;;;;;;;;;;;;;;-144.19;100.00;77614.75;4994585;28;20316;-82
2022/04/01 04:43:58;;;;;;;;;;;;;;;-144.19;100.00;77630.50;4993454;28;19952;-82
2022/04/01 04:46:25;;;;;;;;;;;;;;;-144.19;100.00;77622.63;5009653;28;20000;-81
2022/04/01 04:48:53;;;;;;;;;;;;;;;-144.19;100.00;77626.56;4994123;28;20025;-81
2022/04/01 04:51:23;;;;;;;;;;;;;;;-144.19;100.00;77614.75;4993960;28;19925;-82
2022/04/01 04:53:50;;;;;;;;;;;;;;;-144.19;100.00;77616.72;4993173;28;19933;-83
2022/04/01 04:56:17;;;;;;;;;;;;;;;-144.19;100.00;77620.66;5009156;28;19925;-82
2022/04/01 04:58:44;;;;;;;;;;;;;;;-144.19;100.00;77636.41;4994950;28;19926;-81
2022/04/01 05:01:32;;;;;;;;;;;;;;;-144.19;100.00;77632.47;4991644;28;20303;-81
2022/04/01 05:04:17;;;;;;;;;;;;;;;-144.19;100.00;77626.56;4993476;28;19926;-83
2022/04/01 05:06:53;;;;;;;;;;;;;;;-144.19;100.00;77634.44;4993733;28;19933;-83
2022/04/01 05:09:26;;;;;;;;;;;;;;;-144.19;100.00;77626.56;4993634;28;19953;-82
2022/04/01 05:12:01;;;;;;;;;;;;;;;-144.19;100.00;77644.28;4993871;28;19930;-82
2022/04/01 05:14:30;;;;;;;;;;;;;;;-144.19;100.00;77630.50;4994284;28;19926;-81
2022/04/01 05:17:04;;;;;;;;;;;;;;;-144.19;100.00;77650.19;4994847;28;19926;-82
2022/04/01 05:19:31;;;;;;;;;;;;;;;-144.19;100.00;77642.31;4994139;28;19926;-81
2022/04/01 05:22:08;;;;;;;;;;;;;;;-144.19;100.00;77654.13;4993448;28;19936;-81
2022/04/01 05:24:39;;;;;;;;;;;;;;;-144.19;100.00;77644.28;5010207;28;19926;-82
2022/04/01 05:27:13;;;;;;;;;;;;;;;-144.19;100.00;77654.13;5010043;28;19932;-81
2022/04/01 05:29:42;;;;;;;;;;;;;;;-144.19;100.00;77650.19;4995943;28;19926;-79
2022/04/01 05:32:13;;;;;;;;;;;;;;;-144.19;100.00;77648.22;5008647;28;19932;-81
2022/04/01 05:34:43;;;;;;;;;;;;;;;-144.19;100.00;77654.13;5001395;28;20404;-83
2022/04/01 05:37:09;;;;;;;;;;;;;;;-144.19;100.00;77658.06;5007635;28;19934;-82
2022/04/01 05:39:36;;;;;;;;;;;;;;;-144.19;100.00;77656.09;4994145;28;19926;-81
2022/04/01 05:42:04;;;;;;;;;;;;;;;-144.19;100.00;77656.09;5009250;28;19936;-82
2022/04/01 05:44:32;;;;;;;;;;;;;;;-144.19;100.00;77662.00;4993280;28;19925;-83
2022/04/01 05:46:58;;;;;;;;;;;;;;;-144.19;100.00;77662.00;4994382;28;19926;-82
2022/04/01 05:49:25;;;;;;;;;;;;;;;-144.19;100.00;77662.00;5007884;28;19945;-81
2022/04/01 05:51:52;;;;;;;;;;;;;;;-144.19;100.00;77665.94;4993685;28;19932;-83
2022/04/01 05:54:21;;;;;;;;;;;;;;;-144.19;100.00;77662.00;5007090;28;19929;-82
2022/04/01 05:56:48;;;;;;;;;;;;;;;-144.19;100.00;77660.03;5003830;28;20312;-82
2022/04/01 05:59:15;;;;;;;;;;;;;;;-144.19;100.00;77662.00;4982524;28;19926;-83
2022/04/01 06:01:45;;;;;;;;;;;;;;;-144.19;100.00;77652.16;4999019;28;19926;-83
2022/04/01 06:04:11;;;;;;;;;;;;;;;-144.19;100.00;77660.03;4998905;28;19930;-84
2022/04/01 06:06:41;;;;;;;;;;;;;;;-144.19;100.00;77658.06;4998201;28;19952;-83
2022/04/01 06:09:20;;;;;;;;;;;;;;;-144.19;100.00;77663.97;4997309;28;19926;-84
2022/04/01 06:11:57;;;;;;;;;;;;;;;-144.19;100.00;77662.00;5006603;23;19933;-92
2022/04/01 06:14:34;;;;;;;;;;;;;;;-144.19;100.00;77669.88;4999600;28;19930;-93
2022/04/01 06:17:08;;;;;;;;;;;;;;;-144.19;100.00;77671.84;5005439;28;19925;-94
2022/04/01 06:19:40;;;;;;;;;;;;;;;-144.19;100.00;77663.97;5002735;28;19933;-91
2022/04/01 06:22:14;;;;;;;;;;;;;;;-144.19;100.00;77673.81;4982478;28;19926;-91
2022/04/01 06:24:59;;;;;;;;;;;;;;;-144.19;100.00;77681.69;4984158;28;19997;-92
2022/04/01 06:27:28;;;;;;;;;;;;;;;-144.19;100.00;77675.78;4981725;28;20012;-92
2022/04/01 06:30:05;;;;;;;;;;;;;;;-144.19;100.00;77677.75;4980552;28;19926;-91
2022/04/01 06:32:43;;;;;;;;;;;;;;;-144.19;100.00;77671.84;4979150;28;19965;-89
2022/04/01 06:35:14;;;;;;;;;;;;;;;-144.19;100.00;77671.84;4987942;28;20391;-92
2022/04/01 06:37:49;;;;;;;;;;;;;;;-144.19;100.00;77693.50;4983417;28;20375;-92
2022/04/01 06:40:21;;;;;;;;;;;;;;;-144.19;100.00;77685.63;4977518;28;19926;-91
2022/04/01 06:42:50;;;;;;;;;;;;;;;-144.19;100.00;77683.66;4984096;28;19926;-92
2022/04/01 06:45:17;;;;;;;;;;;;;;;-144.19;100.00;77677.75;4981971;28;19926;-93
2022/04/01 06:47:45;;;;;;;;;;;;;;;-144.19;100.00;77691.53;4979251;28;20399;-92
2022/04/01 06:50:12;;;;;;;;;;;;;;;-144.19;100.00;77677.75;4979497;28;19933;-91
2022/04/01 06:52:39;;;;;;;;;;;;;;;-144.19;100.00;77662.00;4983557;28;20399;-90
2022/04/01 06:55:08;;;;;;;;;;;;;;;-144.19;100.00;77669.88;4985560;28;19945;-94
2022/04/01 06:57:37;;;;;;;;;;;;;;;-144.19;100.00;77669.88;4968487;28;19964;-92
2022/04/01 07:00:05;;;;;;;;;;;;;;;-144.19;100.00;77691.53;4979404;28;19934;-91
2022/04/01 07:02:32;;;;;;;;;;;;;;;-144.19;100.00;77677.75;4980821;28;19926;-91
2022/04/01 07:04:58;;;;;;;;;;;;;;;-144.19;100.00;77681.69;4958520;28;19926;-92
2022/04/01 07:07:25;;;;;;;;;;;;;;;-144.19;100.00;77681.69;4990338;28;19965;-92
2022/04/01 07:10:00;;;;;;;;;;;;;;;-144.19;100.00;77673.81;4992027;28;19964;-92
2022/04/01 07:12:27;;;;;;;;;;;;;;;-144.19;100.00;77669.88;4987227;28;19925;-94
2022/04/01 07:14:57;;;;;;;;;;;;;;;-144.19;100.00;77681.69;4988029;28;20457;-93
2022/04/01 07:17:25;;;;;;;;;;;;;;;-144.19;100.00;77662.00;4968874;28;19936;-91
2022/04/01 07:19:52;;;;;;;;;;;;;;;-144.19;100.00;77638.38;4974389;28;20013;-90
2022/04/01 07:22:18;;;;;;;;;;;;;;;-144.19;100.00;77650.19;4980009;28;20292;-91
2022/04/01 07:24:44;;;;;;;;;;;;;;;-144.19;100.00;77654.13;4966347;28;20016;-91
2022/04/01 07:27:11;;;;;;;;;;;;;;;-144.19;100.00;77650.19;4964636;28;20517;-91
2022/04/01 07:29:38;;;;;;;;;;;;;;;-144.19;100.00;77662.00;4976412;28;19932;-92
2022/04/01 07:34:50;;;;;;;;;;;;;;;-144.19;100.00;77669.88;4992546;28;20380;-91
2022/04/01 07:37:25;;;;;;;;;;;;;;;-144.19;100.00;77681.69;4993090;28;19926;-91
2022/04/01 07:40:13;;;;;;;;;;;;;;;-144.19;100.00;77669.88;4962425;28;19926;-93
2022/04/01 07:42:40;;;;;;;;;;;;;;;-144.19;100.00;77656.09;4974178;28;19975;-91
2022/04/01 07:45:07;;;;;;;;;;;;;;;-144.19;100.00;77665.94;4966549;28;19926;-89
2022/04/01 07:47:33;;;;;;;;;;;;;;;-144.19;100.00;77669.88;4956217;28;20496;-89
2022/04/01 07:50:01;;;;;;;;;;;;;;;-144.19;100.00;77656.09;4972326;28;19926;-92
2022/04/01 07:52:29;;;;;;;;;;;;;;;-144.19;100.00;77642.31;4990395;28;19926;-93
2022/04/01 07:54:55;;;;;;;;;;;;;;;-144.19;100.00;77640.34;4972279;28;20305;-93
2022/04/01 07:57:22;;;;;;;;;;;;;;;-144.19;100.00;77667.91;4979263;28;19976;-92
2022/04/01 07:59:48;;;;;;;;;;;;;;;-144.19;100.00;77652.16;4982543;28;20418;-91
2022/04/01 08:02:16;;;;;;;;;;;;;;;-144.19;100.00;77648.22;4988347;28;19940;-90
2022/04/01 08:04:45;;;;;;;;;;;;;;;-144.19;100.00;77638.38;4976296;28;19952;-92
2022/04/01 08:07:13;;;;;;;;;;;;;;;-144.19;100.00;77658.06;4982324;28;19965;-93
2022/04/01 08:09:40;;;;;;;;;;;;;;;-144.19;100.00;77650.19;4984016;28;20393;-92
2022/04/01 08:12:08;;;;;;;;;;;;;;;-144.19;100.00;77628.53;4987121;28;19926;-90
2022/04/01 08:14:36;;;;;;;;;;;;;;;-144.19;100.00;77608.84;4975634;28;19969;-91
2022/04/01 08:17:03;;;;;;;;;;;;;;;-144.19;100.00;77614.75;4974549;28;19945;-91
2022/04/01 08:19:29;;;;;;;;;;;;;;;-144.19;100.00;77618.69;4974222;28;19957;-90
2022/04/01 08:21:57;;;;;;;;;;;;;;;-144.19;100.00;77606.88;4973519;28;19926;-91
2022/04/01 08:24:24;;;;;;;;;;;;;;;-144.19;100.00;77622.63;4974375;28;19930;-90
2022/04/01 08:26:51;;;;;;;;;;;;;;;-144.19;100.00;77626.56;4974268;28;19926;-89
2022/04/01 08:29:17;;;;;;;;;;;;;;;-144.19;100.00;77614.75;4975494;28;19945;-92
2022/04/01 08:31:43;;;;;;;;;;;;;;;-144.19;100.00;77650.19;4974397;28;20020;-90
2022/04/01 08:34:10;;;;;;;;;;;;;;;-144.19;100.00;77610.81;4976717;28;19927;-89
2022/04/01 08:36:36;;;;;;;;;;;;;;;-144.19;100.00;77602.94;4984490;28;20298;-90
2022/04/01 08:39:03;;;;;;;;;;;;;;;-144.19;100.00;77614.75;4993887;28;19926;-89
2022/04/01 08:41:29;;;;;;;;;;;;;;;-144.19;100.00;77610.81;4976597;28;20418;-89
2022/04/01 08:43:56;;;;;;;;;;;;;;;-144.19;100.00;77614.75;4959379;28;19926;-89
2022/04/01 08:46:23;;;;;;;;;;;;;;;-144.19;100.00;77595.06;5005848;28;19926;-89
2022/04/01 08:48:50;;;;;;;;;;;;;;;-144.19;100.00;77606.88;4993437;28;19925;-91
2022/04/01 08:51:17;;;;;;;;;;;;;;;-144.19;100.00;77600.97;4993554;28;20387;-89
2022/04/01 08:53:44;;;;;;;;;;;;;;;-144.19;100.00;77640.34;4990739;28;19965;-90
2022/04/01 08:56:11;;;;;;;;;;;;;;;-144.19;100.00;77646.25;4991756;28;19925;-91
2022/04/01 08:58:37;;;;;;;;;;;;;;;-144.19;100.00;77665.94;4978666;28;20013;-89
2022/04/01 09:01:05;;;;;;;;;;;;;;;-144.19;100.00;77642.31;4973513;28;20029;-88
2022/04/01 09:03:32;;;;;;;;;;;;;;;-144.19;100.00;77618.69;4973171;28;19926;-88
2022/04/01 09:06:02;;;;;;;;;;;;;;;-144.19;100.00;77658.06;4974803;28;19926;-91
2022/04/01 09:08:35;;;;;;;;;;;;;;;-144.19;100.00;77665.94;4974431;28;20584;-89
2022/04/01 09:11:03;;;;;;;;;;;;;;;-144.19;100.00;77646.25;4973545;28;19984;-88
2022/04/01 09:13:31;;;;;;;;;;;;;;;-144.19;100.00;77618.69;4972553;28;19937;-89
2022/04/01 09:15:58;;;;;;;;;;;;;;;-144.19;100.00;77638.38;4974341;28;19940;-90
2022/04/01 09:18:41;;;;;;;;;;;;;;;-144.19;100.00;77618.69;4972991;28;20388;-90
2022/04/01 09:21:11;;;;;;;;;;;;;;;-144.19;100.00;77618.69;4972131;28;19933;-89
2022/04/01 09:23:38;;;;;;;;;;;;;;;-144.19;100.00;77612.78;4955753;28;20377;-90
2022/04/01 09:26:05;;;;;;;;;;;;;;;-144.19;100.00;77622.63;4973755;28;20020;-90
2022/04/01 09:28:38;;;;;;;;;;;;;;;-144.19;100.00;77612.78;4973955;28;19926;-90
2022/04/01 09:31:12;;;;;;;;;;;;;;;-144.19;100.00;77604.91;4974014;28;19930;-89
2022/04/01 09:33:59;;;;;;;;;;;;;;;-144.19;100.00;77595.06;4972668;28;20274;-87
2022/04/01 09:36:27;;;;;;;;;;;;;;;-144.19;100.00;77581.28;4973139;28;19926;-88
2022/04/01 09:38:55;;;;;;;;;;;;;;;-144.19;100.00;77595.06;4973555;28;19926;-92
2022/04/01 09:41:27;;;;;;;;;;;;;;;-144.19;100.00;77610.81;4973627;28;19933;-92
2022/04/01 09:44:20;;;;;;;;;;;;;;;-144.19;100.00;77595.06;4974895;28;19952;-89
2022/04/01 09:46:48;;;;;;;;;;;;;;;-144.19;100.00;77581.28;4984999;28;20384;-91
2022/04/01 09:49:29;;;;;;;;;;;;;;;-144.19;100.00;77624.59;4977781;28;20025;-93
2022/04/01 09:52:03;;;;;;;;;;;;;;;-144.19;100.00;77634.44;4973778;28;19950;-93
2022/04/01 09:54:29;;;;;;;;;;;;;;;-144.19;100.00;77610.81;4974427;28;20025;-92
2022/04/01 09:56:56;;;;;;;;;;;;;;;-144.19;100.00;77634.44;4974973;28;20296;-91
2022/04/01 09:59:24;;;;;;;;;;;;;;;-144.19;100.00;77662.00;4993465;28;19937;-93
2022/04/01 10:01:51;;;;;;;;;;;;;;;-144.19;100.00;77618.69;4992323;28;19926;-91
2022/04/01 10:04:17;;;;;;;;;;;;;;;-144.19;100.00;77638.38;4992589;28;19933;-91
2022/04/01 10:06:43;;;;;;;;;;;;;;;-144.19;100.00;77595.06;5008874;28;19932;-89
2022/04/01 10:09:11;;;;;;;;;;;;;;;-144.19;100.00;77547.78;4991382;28;19926;-91
2022/04/01 10:11:42;;;;;;;;;;;;;;;-144.19;100.00;77561.59;4992397;28;19936;-92
2022/04/01 10:14:09;;;;;;;;;;;;;;;-144.19;100.00;77549.75;4996874;28;20019;-93
2022/04/01 10:16:37;;;;;;;;;;;;;;;-144.19;100.00;77555.69;4993433;28;19934;-92
2022/04/01 10:19:13;;;;;;;;;;;;;;;-144.19;100.00;77561.59;5002910;28;19993;-89
2022/04/01 10:21:43;;;;;;;;;;;;;;;-144.19;100.00;77522.19;5005462;28;19933;-87
2022/04/01 10:24:14;;;;;;;;;;;;;;;-144.19;100.00;77555.69;5005119;28;19949;-90
2022/04/01 10:27:08;;;;;;;;;;;;;;;-144.19;100.00;77504.47;5001676;28;19973;-90
2022/04/01 10:30:35;;;;;;;;;;;;;;;-144.19;100.00;77543.84;4947173;29;19977;-91
2022/04/01 10:33:20;;;;;;;;;;;;;;;-144.19;100.00;77532.03;4884461;29;20388;-87
2022/04/01 10:35:46;;;;;;;;;;;;;;;-144.19;100.00;77547.78;4990962;28;19926;-86
2022/04/01 10:38:12;;;;;;;;;;;;;;;-144.19;100.00;77524.16;4983119;28;20012;-89
2022/04/01 10:40:41;;;;;;;;;;;;;;;-144.19;100.00;77508.41;4970533;28;19929;-89
2022/04/01 10:43:15;;;;;;;;;;;;;;;-144.19;100.00;77563.56;4972011;28;19941;-91
2022/04/01 10:45:55;;;;;;;;;;;;;;;-144.19;100.00;77543.84;4971871;28;19926;-88
2022/04/01 10:53:56;;;;;;;;;;;;;;;-144.19;100.00;77506.44;4971387;28;19937;-87
2022/04/01 10:56:25;;;;;;;;;;;;;;;-144.19;100.00;77474.94;4970868;28;19941;-89
2022/04/01 10:59:00;;;;;;;;;;;;;;;-144.19;100.00;77498.56;4967581;28;19930;-88
2022/04/01 11:01:30;;;;;;;;;;;;;;;-144.19;100.00;77522.19;4969827;28;19936;-88
2022/04/01 11:04:01;;;;;;;;;;;;;;;-144.19;100.00;77565.53;4971949;28;19933;-88
2022/04/01 11:06:27;;;;;;;;;;;;;;;-144.19;100.00;77565.53;4971287;28;19926;-87
2022/04/01 11:08:55;;;;;;;;;;;;;;;-144.19;100.00;77551.72;4970454;28;20041;-90
2022/04/01 11:11:21;;;;;;;;;;;;;;;-144.19;100.00;77528.09;4976482;28;19930;-90
2022/04/01 11:14:07;;;;;;;;;;;;;;;-144.19;100.00;77488.72;4981760;28;19926;-90
2022/04/01 11:16:51;;;;;;;;;;;;;;;-144.19;100.00;77500.53;4989135;28;20340;-89
2022/04/01 11:19:19;;;;;;;;;;;;;;;-144.19;100.00;77502.50;5006663;28;19942;-90
2022/04/01 11:21:50;;;;;;;;;;;;;;;-144.19;100.00;77492.66;5000499;28;19949;-88
2022/04/01 11:24:41;;;;;;;;;;;;;;;-144.19;100.00;77472.97;4948784;29;19968;-90
2022/04/01 11:27:23;;;;;;;;;;;;;;;-144.19;100.00;77409.97;4946168;28;19926;-91
2022/04/01 11:30:14;;;;;;;;;;;;;;;-144.19;100.00;77378.47;4990294;28;19921;-87
2022/04/01 11:33:11;;;;;;;;;;;;;;;-144.19;100.00;77425.72;4984836;28;19933;-88
2022/04/01 11:35:48;;;;;;;;;;;;;;;-144.19;100.00;77408.00;5007612;28;20424;-91
2022/04/01 11:38:23;;;;;;;;;;;;;;;-144.19;100.00;77386.34;4992479;28;19926;-91
2022/04/01 11:41:03;;;;;;;;;;;;;;;-144.19;100.00;77398.16;4987364;28;20017;-89
2022/04/01 11:43:54;;;;;;;;;;;;;;;-144.19;100.00;77433.59;4995724;28;19926;-88
2022/04/01 11:46:25;;;;;;;;;;;;;;;-144.19;100.00;77429.66;4993670;28;20017;-87
2022/04/01 11:48:53;;;;;;;;;;;;;;;-144.19;100.00;77402.09;4995881;28;19926;-87
2022/04/01 11:51:42;;;;;;;;;;;;;;;-144.19;100.00;77413.91;4990417;28;19925;-88
2022/04/01 11:54:29;;;;;;;;;;;;;;;-144.19;100.00;77461.16;5006380;28;19937;-86
2022/04/01 11:57:00;;;;;;;;;;;;;;;-144.19;100.00;77445.41;4992849;28;19980;-85
2022/04/01 11:59:34;;;;;;;;;;;;;;;-144.19;100.00;77465.09;4993309;28;19981;-85
2022/04/01 12:02:19;;;;;;;;;;;;;;;-144.19;100.00;77465.09;4990115;28;20028;-85
2022/04/01 12:04:58;;;;;;;;;;;;;;;-144.19;100.00;77469.03;4987961;28;20013;-87
2022/04/01 12:10:29;;;;;;;;;;;;;;;-144.19;100.00;77427.69;4990189;28;19973;-86
2022/04/01 12:13:00;;;;;;;;;;;;;;;-144.19;100.00;77445.41;5015616;23;19929;-87
2022/04/01 12:15:31;;;;;;;;;;;;;;;-144.19;100.00;77457.22;5018333;28;19935;-86
2022/04/01 12:17:57;;;;;;;;;;;;;;;-144.19;100.00;77476.91;5018311;28;20016;-88
2022/04/01 12:20:26;;;;;;;;;;;;;;;-144.19;100.00;77445.41;5017999;28;20387;-84
2022/04/01 12:22:56;;;;;;;;;;;;;;;-144.19;100.00;77439.50;5017201;28;19925;-87
2022/04/01 12:25:23;;;;;;;;;;;;;;;-144.19;100.00;77445.41;5017835;28;19936;-87
2022/04/01 12:27:53;;;;;;;;;;;;;;;-144.19;100.00;77437.53;5034372;28;19992;-84
2022/04/01 12:30:27;;;;;;;;;;;;;;;-144.19;100.00;77421.78;5034480;28;20260;-86
2022/04/01 12:32:56;;;;;;;;;;;;;;;-144.19;100.00;77437.53;5031942;28;19925;-84
2022/04/01 12:35:23;;;;;;;;;;;;;;;-144.19;100.00;77453.28;5001096;28;19926;-89
2022/04/01 12:38:03;;;;;;;;;;;;;;;-144.19;100.00;77433.59;5013543;28;19925;-86
2022/04/01 12:40:50;;;;;;;;;;;;;;;-144.19;100.00;77419.81;5013923;28;19936;-88
2022/04/01 12:43:35;;;;;;;;;;;;;;;-144.19;100.00;77445.41;4995005;28;20324;-86
2022/04/01 12:46:09;;;;;;;;;;;;;;;-144.19;100.00;77433.59;4996765;28;19929;-88
2022/04/01 12:48:46;;;;;;;;;;;;;;;-144.19;100.00;77417.84;4996453;28;19925;-88
2022/04/01 12:51:16;;;;;;;;;;;;;;;-144.19;100.00;77451.31;5014299;28;19925;-87